createdAt,value
2019-05-18T08:35:33.670Z,20.20
2019-05-18T08:38:02.597Z,20.30
2019-05-18T08:40:31.954Z,20.60
2019-05-18T08:43:01.556Z,20.70
2019-05-18T08:45:30.532Z,20.70
2019-05-18T08:47:59.428Z,20.80
2019-05-18T08:50:28.333Z,21.00
2019-05-18T08:52:57.711Z,21.30
2019-05-18T08:55:26.849Z,21.30
2019-05-18T08:57:55.719Z,21.40
2019-05-18T09:00:24.747Z,21.20
2019-05-18T09:02:53.585Z,21.20
2019-05-18T09:05:22.421Z,21.40
2019-05-18T09:07:51.240Z,21.50
2019-05-18T09:10:20.199Z,21.40
2019-05-18T09:12:49.396Z,21.50
2019-05-18T09:15:19.685Z,21.70
2019-05-18T09:17:48.475Z,21.70
2019-05-18T09:20:17.664Z,21.50
2019-05-18T09:22:46.863Z,21.60
2019-05-18T09:25:15.832Z,21.60
2019-05-18T09:27:44.622Z,21.50
2019-05-18T09:30:15.115Z,21.80
2019-05-18T09:32:43.972Z,21.80
2019-05-18T09:35:13.422Z,22.00
2019-05-18T09:37:42.523Z,21.70
2019-05-18T09:40:11.727Z,21.70
2019-05-18T09:42:40.704Z,21.80
2019-05-18T09:45:11.409Z,21.80
2019-05-18T09:47:40.321Z,22.00
2019-05-18T09:50:10.266Z,22.20
2019-05-18T09:52:46.621Z,22.10
2019-05-18T09:55:09.874Z,21.90
2019-05-18T09:57:38.978Z,21.90
2019-05-18T10:00:09.306Z,21.80
2019-05-18T10:02:38.292Z,22.00
2019-05-18T10:05:07.900Z,21.90
2019-05-18T10:07:36.727Z,22.10
2019-05-18T10:10:06.419Z,22.20
2019-05-18T10:12:35.612Z,22.20
2019-05-18T10:15:04.829Z,22.10
2019-05-18T10:17:33.612Z,22.00
2019-05-18T10:20:02.491Z,21.70
2019-05-18T10:22:31.310Z,21.90
2019-05-18T10:25:00.175Z,22.10
2019-05-18T10:27:29.372Z,22.10
2019-05-18T10:29:58.467Z,21.70
2019-05-18T10:32:27.271Z,21.50
2019-05-18T10:34:56.118Z,21.50
2019-05-18T10:37:25.242Z,21.60
2019-05-18T10:39:54.354Z,21.70
2019-05-18T10:42:23.531Z,21.90
2019-05-18T10:44:52.424Z,22.00
2019-05-18T10:47:21.541Z,22.30
2019-05-18T10:49:50.324Z,22.30
2019-05-18T10:52:19.260Z,22.20
2019-05-18T10:54:48.143Z,22.40
2019-05-18T10:57:17.315Z,22.40
2019-05-18T10:59:46.184Z,22.50
2019-05-18T11:02:15.161Z,22.40
2019-05-18T11:04:43.962Z,22.30
2019-05-18T11:07:13.133Z,22.00
2019-05-18T11:09:41.916Z,21.90
2019-05-18T11:12:11.076Z,21.90
2019-05-18T11:14:40.159Z,21.80
2019-05-18T11:17:08.965Z,21.90
2019-05-18T11:19:37.746Z,22.00
2019-05-18T11:22:06.673Z,22.00
2019-05-18T11:24:35.737Z,22.20
2019-05-18T11:27:04.543Z,22.20
2019-05-18T11:29:33.337Z,22.20
2019-05-18T11:32:02.619Z,22.30
2019-05-18T11:34:31.459Z,22.40
2019-05-18T11:37:03.092Z,22.50
2019-05-18T11:39:30.738Z,22.30
2019-05-18T11:41:59.524Z,22.20
2019-05-18T11:44:28.610Z,22.10
2019-05-18T11:46:57.799Z,22.10
2019-05-18T11:49:29.085Z,22.40
2019-05-18T11:51:57.427Z,22.50
2019-05-18T11:54:26.196Z,22.60
2019-05-18T11:56:55.361Z,22.90
2019-05-18T11:59:24.246Z,23.00
2019-05-18T12:01:53.414Z,22.90
2019-05-18T12:04:22.200Z,23.00
2019-05-18T12:06:51.075Z,22.70
2019-05-18T12:09:20.308Z,22.60
2019-05-18T12:11:49.092Z,22.70
2019-05-18T12:14:17.884Z,22.70
2019-05-18T12:16:46.738Z,22.70
2019-05-18T12:19:15.690Z,22.90
2019-05-18T12:21:44.862Z,22.90
2019-05-18T12:24:15.688Z,23.00
2019-05-18T12:26:44.202Z,23.10
2019-05-18T12:29:13.061Z,23.00
2019-05-18T12:31:42.177Z,23.00
2019-05-18T12:34:11.128Z,23.00
2019-05-18T12:36:40.381Z,23.20
2019-05-18T12:39:09.346Z,23.10
2019-05-18T12:41:38.671Z,23.20
2019-05-18T12:44:07.643Z,23.30
2019-05-18T12:46:36.572Z,23.30
2019-05-18T12:49:06.079Z,23.30
2019-05-18T12:51:34.976Z,23.30
2019-05-18T12:54:04.050Z,23.50
2019-05-18T12:56:33.248Z,23.50
2019-05-18T12:59:02.110Z,23.70
2019-05-18T13:01:30.874Z,23.70
2019-05-18T13:03:59.872Z,23.70
2019-05-18T13:06:29.124Z,23.50
2019-05-18T13:08:57.958Z,23.50
2019-05-18T13:11:26.759Z,23.60
2019-05-18T13:13:56.194Z,23.60
2019-05-18T13:16:25.009Z,23.70
2019-05-18T13:18:54.018Z,23.80
2019-05-18T13:21:23.179Z,23.50
2019-05-18T13:23:52.118Z,23.60
2019-05-18T13:26:21.182Z,23.60
2019-05-18T13:28:50.385Z,23.70
2019-05-18T13:31:19.477Z,23.60
2019-05-18T13:33:48.671Z,23.70
2019-05-18T13:36:17.754Z,23.90
2019-05-18T13:38:46.617Z,24.10
2019-05-18T13:41:15.527Z,24.20
2019-05-18T13:43:44.704Z,24.30
2019-05-18T13:46:13.770Z,24.60
2019-05-18T13:48:43.546Z,24.80
2019-05-18T13:51:12.526Z,24.90
2019-05-18T13:53:41.401Z,24.90
2019-05-18T13:56:10.438Z,24.60
2019-05-18T13:58:39.605Z,24.50
2019-05-18T14:01:08.525Z,24.40
2019-05-18T14:03:37.907Z,24.20
2019-05-18T14:06:07.354Z,24.10
2019-05-18T14:08:36.241Z,24.10
2019-05-18T14:11:05.403Z,24.30
2019-05-18T14:13:35.603Z,24.50
2019-05-18T14:16:04.572Z,24.40
2019-05-18T14:18:34.091Z,24.40
2019-05-18T14:21:02.908Z,24.30
2019-05-18T14:23:31.913Z,24.20
2019-05-18T14:26:00.724Z,24.20
2019-05-18T14:28:29.577Z,24.40
2019-05-18T14:30:58.455Z,24.00
2019-05-18T14:33:27.347Z,24.10
2019-05-18T14:35:56.474Z,24.40
2019-05-18T14:38:25.717Z,24.70
2019-05-18T14:40:55.087Z,24.80
2019-05-18T14:43:24.362Z,24.90
2019-05-18T14:45:53.330Z,24.90
2019-05-18T14:48:22.495Z,24.70
2019-05-18T14:50:51.671Z,24.80
2019-05-18T14:53:20.906Z,24.00
2019-05-18T14:55:49.831Z,23.80
2019-05-18T14:58:18.618Z,24.00
2019-05-18T15:00:47.528Z,24.00
2019-05-18T15:03:16.692Z,24.20
2019-05-18T15:05:45.572Z,24.20
2019-05-18T15:08:14.574Z,23.40
2019-05-18T15:10:43.455Z,23.30
2019-05-18T15:13:12.564Z,23.40
2019-05-18T15:15:41.513Z,23.70
2019-05-18T15:18:10.632Z,23.80
2019-05-18T15:20:39.544Z,24.10
2019-05-18T15:23:08.751Z,24.30
2019-05-18T15:25:49.584Z,24.40
2019-05-18T15:28:08.589Z,24.50
2019-05-18T15:30:37.557Z,24.60
2019-05-18T15:33:06.346Z,24.70
2019-05-18T15:35:35.293Z,24.90
2019-05-18T15:38:04.598Z,25.00
2019-05-18T15:40:33.552Z,25.10
2019-05-18T15:43:02.677Z,25.10
2019-05-18T15:45:31.569Z,25.00
2019-05-18T15:48:00.608Z,25.00
2019-05-18T15:50:29.850Z,25.10
2019-05-18T15:52:58.754Z,25.20
2019-05-18T15:55:27.973Z,24.90
2019-05-18T15:57:57.028Z,24.80
2019-05-18T16:00:25.938Z,24.60
2019-05-18T16:02:55.023Z,24.70
2019-05-18T16:05:24.509Z,24.70
2019-05-18T16:07:53.669Z,24.60
2019-05-18T16:10:24.219Z,24.30
2019-05-18T16:12:53.637Z,24.50
2019-05-18T16:15:22.628Z,24.60
2019-05-18T16:17:51.833Z,24.70
2019-05-18T16:20:21.021Z,24.40
2019-05-18T16:22:49.875Z,24.30
2019-05-18T16:25:18.961Z,24.30
2019-05-18T16:27:47.825Z,24.00
2019-05-18T16:30:17.274Z,23.70
2019-05-18T16:32:46.520Z,23.80
2019-05-18T16:35:15.542Z,23.70
2019-05-18T16:37:45.071Z,23.40
2019-05-18T16:40:15.448Z,23.50
2019-05-18T16:42:46.545Z,23.50
2019-05-18T16:45:16.853Z,23.40
2019-05-18T16:47:45.698Z,23.50
2019-05-18T16:50:15.022Z,23.10
2019-05-18T16:52:44.233Z,23.10
2019-05-18T16:55:13.853Z,23.00
2019-05-18T16:57:45.450Z,23.00
2019-05-18T17:00:16.450Z,23.10
2019-05-18T17:02:45.550Z,23.00
2019-05-18T17:05:14.823Z,23.20
2019-05-18T17:07:43.671Z,23.10
2019-05-18T17:10:13.313Z,22.90
2019-05-18T17:12:42.259Z,22.60
2019-05-18T17:15:11.199Z,22.60
2019-05-18T17:17:40.195Z,22.30
2019-05-18T17:20:09.961Z,22.40
2019-05-18T17:22:39.144Z,22.50
2019-05-18T17:25:08.434Z,22.30
2019-05-18T17:27:37.218Z,22.20
2019-05-18T17:30:06.233Z,22.10
2019-05-18T17:32:35.497Z,21.90
2019-05-18T17:35:05.021Z,21.80
2019-05-18T17:37:33.848Z,21.80
2019-05-18T17:40:02.750Z,21.70
2019-05-18T17:42:31.556Z,21.70
2019-05-18T17:45:00.446Z,21.60
2019-05-18T17:47:29.674Z,21.50
2019-05-18T17:49:58.586Z,21.50
2019-05-18T17:52:27.877Z,21.40
2019-05-18T17:54:57.540Z,21.40
2019-05-18T17:57:26.462Z,21.30
2019-05-18T17:59:55.572Z,21.20
2019-05-18T18:02:24.369Z,21.10
2019-05-18T18:04:54.276Z,21.00
2019-05-18T18:07:23.258Z,20.90
2019-05-18T18:09:52.059Z,20.90
2019-05-18T18:12:20.928Z,20.90
2019-05-18T18:14:49.712Z,20.90
2019-05-18T18:17:18.525Z,20.80
2019-05-18T18:19:47.728Z,20.70
2019-05-18T18:22:16.597Z,20.80
2019-05-18T18:24:45.379Z,20.70
2019-05-18T18:27:24.758Z,20.70
2019-05-18T18:29:44.776Z,20.60
2019-05-18T18:32:13.835Z,20.50
2019-05-18T18:34:42.618Z,20.40
2019-05-18T18:37:11.757Z,20.30
2019-05-18T18:39:40.536Z,20.20
2019-05-18T18:42:09.496Z,20.10
2019-05-18T18:44:38.709Z,20.00
2019-05-18T18:47:07.577Z,20.00
2019-05-18T18:49:36.359Z,20.00
2019-05-18T18:52:05.632Z,20.00
2019-05-18T18:54:34.509Z,19.80
2019-05-18T18:57:03.400Z,19.60
2019-05-18T18:59:32.321Z,19.40
2019-05-18T19:02:01.590Z,19.40
2019-05-18T19:04:30.776Z,19.30
2019-05-18T19:06:59.646Z,19.30
2019-05-18T19:09:28.760Z,19.10
2019-05-18T19:11:57.565Z,18.90
2019-05-18T19:14:26.558Z,18.80
2019-05-18T19:16:55.482Z,18.80
2019-05-18T19:19:24.754Z,18.70
2019-05-18T19:21:54.055Z,18.60
2019-05-18T19:24:22.928Z,18.30
2019-05-18T19:26:51.809Z,18.10
2019-05-18T19:29:20.648Z,17.80
2019-05-18T19:31:49.460Z,17.60
2019-05-18T19:34:18.314Z,17.60
2019-05-18T19:36:47.237Z,17.50
2019-05-18T19:39:35.336Z,17.50
2019-05-18T19:42:04.265Z,17.40
2019-05-18T19:44:33.151Z,17.40
2019-05-18T19:47:02.209Z,17.40
2019-05-18T19:49:31.078Z,17.30
2019-05-18T19:52:00.036Z,17.20
2019-05-18T19:54:29.309Z,17.10
2019-05-18T19:56:58.251Z,17.10
2019-05-18T19:59:27.064Z,16.90
2019-05-18T20:01:56.204Z,16.80
2019-05-18T20:04:24.984Z,16.70
2019-05-18T20:06:54.101Z,16.60
2019-05-18T20:09:23.145Z,16.60
2019-05-18T20:11:52.093Z,16.60
2019-05-18T20:14:21.174Z,16.40
2019-05-18T20:16:50.194Z,16.30
2019-05-18T20:19:19.135Z,16.10
2019-05-18T20:21:47.934Z,16.10
2019-05-18T20:24:16.816Z,16.00
2019-05-18T20:26:45.616Z,15.80
2019-05-18T20:29:14.422Z,15.70
2019-05-18T20:31:43.267Z,15.70
2019-05-18T20:34:12.428Z,15.60
2019-05-18T20:36:41.238Z,15.60
2019-05-18T20:39:10.091Z,15.60
2019-05-18T20:41:39.164Z,15.50
2019-05-18T20:44:08.140Z,15.40
2019-05-18T20:46:36.917Z,15.40
2019-05-18T20:49:05.713Z,15.30
2019-05-18T20:51:34.664Z,15.10
2019-05-18T20:54:03.614Z,15.10
2019-05-18T20:56:32.525Z,15.10
2019-05-18T20:59:01.753Z,15.00
2019-05-18T21:01:30.515Z,15.00
2019-05-18T21:03:59.333Z,14.90
2019-05-18T21:06:28.125Z,14.80
2019-05-18T21:08:56.965Z,14.80
2019-05-18T21:11:26.164Z,14.70
2019-05-18T21:13:57.657Z,14.70
2019-05-18T21:16:25.791Z,14.70
2019-05-18T21:18:54.902Z,14.70
2019-05-18T21:21:25.914Z,14.70
2019-05-18T21:23:54.707Z,14.50
2019-05-18T21:26:23.811Z,14.50
2019-05-18T21:28:57.598Z,14.50
2019-05-18T21:31:23.105Z,14.50
2019-05-18T21:33:51.907Z,14.40
2019-05-18T21:36:20.958Z,14.30
2019-05-18T21:38:49.876Z,14.20
2019-05-18T21:41:18.775Z,14.10
2019-05-18T21:43:47.848Z,14.00
2019-05-18T21:46:16.627Z,14.00
2019-05-18T21:48:45.530Z,14.00
2019-05-18T21:51:14.318Z,13.80
2019-05-18T21:53:43.787Z,13.80
2019-05-18T21:56:12.925Z,13.60
2019-05-18T21:58:41.720Z,13.60
2019-05-18T22:01:10.658Z,13.60
2019-05-18T22:03:43.870Z,13.50
2019-05-18T22:06:10.219Z,13.40
2019-05-18T22:08:39.066Z,13.50
2019-05-18T22:11:07.910Z,13.50
2019-05-18T22:13:36.795Z,13.40
2019-05-18T22:16:05.960Z,13.30
2019-05-18T22:18:35.117Z,13.20
2019-05-18T22:21:04.275Z,13.20
2019-05-18T22:23:33.275Z,13.20
2019-05-18T22:26:02.061Z,13.20
2019-05-18T22:28:31.235Z,13.20
2019-05-18T22:31:00.119Z,13.20
2019-05-18T22:33:28.943Z,13.10
2019-05-18T22:38:26.245Z,12.80
2019-05-18T22:40:55.074Z,12.80
2019-05-18T22:43:23.857Z,12.70
2019-05-18T22:45:53.535Z,12.80
2019-05-18T22:48:22.354Z,12.70
2019-05-18T22:50:51.141Z,12.70
2019-05-18T22:53:20.077Z,12.70
2019-05-18T22:55:48.864Z,12.40
2019-05-18T22:58:17.665Z,12.30
2019-05-18T23:00:46.464Z,12.00
2019-05-18T23:03:15.519Z,11.80
2019-05-18T23:05:44.724Z,11.70
2019-05-18T23:08:13.564Z,11.70
2019-05-18T23:10:42.381Z,11.80
2019-05-18T23:13:11.224Z,11.80
2019-05-18T23:15:40.004Z,11.90
2019-05-18T23:18:08.781Z,11.90
2019-05-18T23:20:38.006Z,12.00
2019-05-18T23:23:06.861Z,12.10
2019-05-18T23:25:35.654Z,12.10
2019-05-18T23:28:04.853Z,12.20
2019-05-18T23:30:33.719Z,12.10
2019-05-18T23:33:02.947Z,12.10
2019-05-18T23:35:31.810Z,12.10
2019-05-18T23:38:00.584Z,12.10
2019-05-18T23:40:29.399Z,12.00
2019-05-18T23:42:58.179Z,11.90
2019-05-18T23:45:26.988Z,11.90
2019-05-18T23:47:55.757Z,11.80
2019-05-18T23:50:24.550Z,11.70
2019-05-18T23:52:53.454Z,11.60
2019-05-18T23:55:22.322Z,11.60
2019-05-18T23:57:51.075Z,11.50
